Time;durP1;ratioP1;P1;durP2;ratioP2;P2;SDS_P1;SDS_P2;PMS_P1;PMS_P2;Temp;Humidity;BMP_temperature;BMP_pressure;BME280_temperature;BME280_humidity;BME280_pressure;Samples;Min_cycle;Max_cycle;Signal;HPM_P1;HPM_P2
2024/01/25 00:01:05;;;;;;;;;;;;;;;;;;10472792;28;20370;-82
2024/01/25 00:06:05;;;;;;;;;;;;;;;;;;10473840;28;19920;-81
2024/01/25 00:11:06;;;;;;;;;;;;;;;;;;10477498;28;19916;-82
2024/01/25 00:16:06;;;;;;;;;;;;;;;;;;10489491;28;19988;-81
2024/01/25 00:21:07;;;;;;;;;;;;;;;;;;10470942;28;19915;-77
2024/01/25 00:26:07;;;;;;;;;;;;;;;;;;10487872;28;19931;-82
2024/01/25 00:31:07;;;;;;;;;;;;;;;;;;10471196;28;20382;-82
2024/01/25 00:36:07;;;;;;;;;;;;;;;;;;10457081;28;19925;-78
2024/01/25 00:41:07;;;;;;;;;;;;;;;;;;10469889;28;20315;-78
2024/01/25 00:46:07;;;;;;;;;;;;;;;;;;10469780;28;20303;-78
2024/01/25 00:51:07;;;;;;;;;;;;;;;;;;10486949;28;20000;-81
2024/01/25 00:56:08;;;;;;;;;;;;;;;;;;10446154;28;19999;-77
2024/01/25 01:01:09;;;;;;;;;;;;;;;;;;10484896;28;19966;-79
2024/01/25 01:06:09;;;;;;;;;;;;;;;;;;10465741;28;19916;-85
2024/01/25 01:11:09;;;;;;;;;;;;;;;;;;10473030;28;19994;-82
2024/01/25 01:16:10;;;;;;;;;;;;;;;;;;10474869;28;20337;-79
2024/01/25 01:21:10;;;;;;;;;;;;;;;;;;10467979;28;19909;-78
2024/01/25 01:26:10;;;;;;;;;;;;;;;;;;10468884;28;19908;-82
2024/01/25 01:31:10;;;;;;;;;;;;;;;;;;10467795;28;19917;-78
2024/01/25 01:36:10;;;;;;;;;;;;;;;;;;10485568;28;19944;-77
2024/01/25 01:41:12;;;;;;;;;;;;;;;;;;10485433;28;19919;-85
2024/01/25 01:46:12;;;;;;;;;;;;;;;;;;10455754;28;19966;-75
2024/01/25 01:51:12;;;;;;;;;;;;;;;;;;10445712;28;20015;-83
2024/01/25 01:56:13;;;;;;;;;;;;;;;;;;10466661;28;20302;-79
2024/01/25 02:01:13;;;;;;;;;;;;;;;;;;10466441;28;19908;-79
2024/01/25 02:06:13;;;;;;;;;;;;;;;;;;10466666;28;19916;-78
2024/01/25 02:11:13;;;;;;;;;;;;;;;;;;10466817;28;19912;-78
2024/01/25 02:16:14;;;;;;;;;;;;;;;;;;10491740;28;19942;-85
2024/01/25 02:21:15;;;;;;;;;;;;;;;;;;10475762;28;19966;-77
2024/01/25 02:26:15;;;;;;;;;;;;;;;;;;10474895;28;19909;-84
2024/01/25 02:31:15;;;;;;;;;;;;;;;;;;10474510;28;19912;-76
2024/01/25 02:36:15;;;;;;;;;;;;;;;;;;10474922;28;19920;-81
2024/01/25 02:41:15;;;;;;;;;;;;;;;;;;10474136;28;20369;-78
2024/01/25 02:46:15;;;;;;;;;;;;;;;;;;10473720;28;19922;-84
2024/01/25 02:51:15;;;;;;;;;;;;;;;;;;10474732;28;19923;-82
2024/01/25 02:56:16;;;;;;;;;;;;;;;;;;10439550;28;19920;-81
2024/01/25 03:01:16;;;;;;;;;;;;;;;;;;10491463;28;19916;-79
2024/01/25 03:06:16;;;;;;;;;;;;;;;;;;10473206;28;19912;-78
2024/01/25 03:11:16;;;;;;;;;;;;;;;;;;10470982;28;19917;-79
2024/01/25 03:16:16;;;;;;;;;;;;;;;;;;10440966;28;19912;-77
2024/01/25 03:21:17;;;;;;;;;;;;;;;;;;10460104;28;20363;-84
2024/01/25 03:26:17;;;;;;;;;;;;;;;;;;10443344;28;19915;-82
2024/01/25 03:31:17;;;;;;;;;;;;;;;;;;10490029;28;19912;-81
2024/01/25 03:36:18;;;;;;;;;;;;;;;;;;10471579;28;19924;-80
2024/01/25 03:41:18;;;;;;;;;;;;;;;;;;10471754;28;19923;-80
2024/01/25 03:46:18;;;;;;;;;;;;;;;;;;10489980;28;20420;-78
2024/01/25 03:51:19;;;;;;;;;;;;;;;;;;10471725;28;19913;-77
2024/01/25 03:56:22;;;;;;;;;;;;;;;;;;10471351;28;19912;-85
2024/01/25 04:01:22;;;;;;;;;;;;;;;;;;10471771;28;19954;-86
2024/01/25 04:06:22;;;;;;;;;;;;;;;;;;10471432;28;20031;-83
2024/01/25 04:11:23;;;;;;;;;;;;;;;;;;10441167;28;20042;-81
2024/01/25 04:16:23;;;;;;;;;;;;;;;;;;10454462;28;19920;-84
2024/01/25 04:21:23;;;;;;;;;;;;;;;;;;10440385;28;19913;-77
2024/01/25 04:26:23;;;;;;;;;;;;;;;;;;10469608;28;20399;-80
2024/01/25 04:31:23;;;;;;;;;;;;;;;;;;10451537;28;20287;-81
2024/01/25 04:36:23;;;;;;;;;;;;;;;;;;10456807;28;19921;-80
2024/01/25 04:41:24;;;;;;;;;;;;;;;;;;10450794;28;19916;-83
2024/01/25 04:46:24;;;;;;;;;;;;;;;;;;10440509;28;20307;-80
2024/01/25 04:51:24;;;;;;;;;;;;;;;;;;10383212;28;19913;-77
2024/01/25 04:56:24;;;;;;;;;;;;;;;;;;10383960;28;19978;-80
2024/01/25 05:01:24;;;;;;;;;;;;;;;;;;10385044;28;20437;-81
2024/01/25 05:06:24;;;;;;;;;;;;;;;;;;10393404;28;19967;-81
2024/01/25 05:11:24;;;;;;;;;;;;;;;;;;10440723;28;19983;-79
2024/01/25 05:16:25;;;;;;;;;;;;;;;;;;10497854;28;19916;-86
2024/01/25 05:21:25;;;;;;;;;;;;;;;;;;10444872;28;19912;-77
2024/01/25 05:26:25;;;;;;;;;;;;;;;;;;10419159;28;19996;-79
2024/01/25 05:31:25;;;;;;;;;;;;;;;;;;10468586;28;20310;-86
2024/01/25 05:36:25;;;;;;;;;;;;;;;;;;10467959;28;19928;-79
2024/01/25 05:41:25;;;;;;;;;;;;;;;;;;10485426;28;20011;-76
2024/01/25 05:46:26;;;;;;;;;;;;;;;;;;10481702;28;19920;-79
2024/01/25 05:51:26;;;;;;;;;;;;;;;;;;10467178;28;20895;-76
2024/01/25 05:56:26;;;;;;;;;;;;;;;;;;10459845;28;20007;-78
2024/01/25 06:01:26;;;;;;;;;;;;;;;;;;10462573;28;20562;-81
2024/01/25 06:06:26;;;;;;;;;;;;;;;;;;10463697;28;20349;-78
2024/01/25 06:11:26;;;;;;;;;;;;;;;;;;10463216;28;19921;-80
2024/01/25 06:16:26;;;;;;;;;;;;;;;;;;10463876;28;19909;-76
2024/01/25 06:21:28;;;;;;;;;;;;;;;;;;10462182;28;19999;-80
2024/01/25 06:26:29;;;;;;;;;;;;;;;;;;10463221;28;19993;-78
2024/01/25 06:31:29;;;;;;;;;;;;;;;;;;10443918;28;19956;-77
2024/01/25 06:36:30;;;;;;;;;;;;;;;;;;10421352;28;20019;-77
2024/01/25 06:41:30;;;;;;;;;;;;;;;;;;10425203;28;19920;-78
2024/01/25 06:46:30;;;;;;;;;;;;;;;;;;10449839;28;19909;-79
2024/01/25 06:51:30;;;;;;;;;;;;;;;;;;10467258;28;19912;-80
2024/01/25 06:56:31;;;;;;;;;;;;;;;;;;10465521;28;19912;-76
2024/01/25 07:01:32;;;;;;;;;;;;;;;;;;10488582;28;19943;-75
2024/01/25 07:06:32;;;;;;;;;;;;;;;;;;10468910;28;19916;-79
2024/01/25 07:11:32;;;;;;;;;;;;;;;;;;10436564;28;19916;-77
2024/01/25 07:16:33;;;;;;;;;;;;;;;;;;10477880;28;19908;-77
2024/01/25 07:21:33;;;;;;;;;;;;;;;;;;10458747;28;19920;-77
2024/01/25 07:26:36;;;;;;;;;;;;;;;;;;10473411;28;19908;-77
2024/01/25 07:31:36;;;;;;;;;;;;;;;;;;10472485;28;20370;-80
2024/01/25 07:36:36;;;;;;;;;;;;;;;;;;10472431;28;19982;-81
2024/01/25 07:41:36;;;;;;;;;;;;;;;;;;10471472;28;19916;-77
2024/01/25 07:46:36;;;;;;;;;;;;;;;;;;10472227;28;19916;-81
2024/01/25 07:51:37;;;;;;;;;;;;;;;;;;10490357;28;20374;-75
2024/01/25 07:56:37;;;;;;;;;;;;;;;;;;10471020;28;19955;-78
2024/01/25 08:01:37;;;;;;;;;;;;;;;;;;10469992;28;19915;-78
2024/01/25 08:06:37;;;;;;;;;;;;;;;;;;10472140;28;19908;-80
2024/01/25 08:11:37;;;;;;;;;;;;;;;;;;10472497;28;19912;-81
2024/01/25 08:16:37;;;;;;;;;;;;;;;;;;10470635;28;19915;-81
2024/01/25 08:21:39;;;;;;;;;;;;;;;;;;10470920;28;20019;-83
2024/01/25 08:26:39;;;;;;;;;;;;;;;;;;10488454;28;19908;-80
2024/01/25 08:31:39;;;;;;;;;;;;;;;;;;10470475;28;20424;-78
2024/01/25 08:36:41;;;;;;;;;;;;;;;;;;10487854;28;19929;-83
2024/01/25 08:41:42;;;;;;;;;;;;;;;;;;10434686;28;19913;-81
2024/01/25 08:46:43;;;;;;;;;;;;;;;;;;10454221;28;20302;-81
2024/01/25 08:51:43;;;;;;;;;;;;;;;;;;10468105;28;19916;-81
2024/01/25 08:56:45;;;;;;;;;;;;;;;;;;10468812;28;19915;-81
2024/01/25 09:01:45;;;;;;;;;;;;;;;;;;10468628;28;19958;-77
2024/01/25 09:06:45;;;;;;;;;;;;;;;;;;10474363;28;19966;-77
2024/01/25 09:11:45;;;;;;;;;;;;;;;;;;10469442;28;19919;-77
2024/01/25 09:16:45;;;;;;;;;;;;;;;;;;10467392;28;19913;-76
2024/01/25 09:21:46;;;;;;;;;;;;;;;;;;10465986;28;19994;-79
2024/01/25 09:26:46;;;;;;;;;;;;;;;;;;10468479;28;20453;-80
2024/01/25 09:31:46;;;;;;;;;;;;;;;;;;10467369;28;19932;-80
2024/01/25 09:36:46;;;;;;;;;;;;;;;;;;10468063;28;19944;-79
2024/01/25 09:41:46;;;;;;;;;;;;;;;;;;10469175;28;20003;-79
2024/01/25 09:46:46;;;;;;;;;;;;;;;;;;10471046;28;19913;-85
2024/01/25 09:51:48;;;;;;;;;;;;;;;;;;10483855;28;19913;-76
2024/01/25 09:56:48;;;;;;;;;;;;;;;;;;10452076;28;20458;-77
2024/01/25 10:01:48;;;;;;;;;;;;;;;;;;10472074;28;19908;-77
2024/01/25 10:06:49;;;;;;;;;;;;;;;;;;10467013;28;19916;-76
2024/01/25 10:11:49;;;;;;;;;;;;;;;;;;10466638;28;19913;-80
2024/01/25 10:16:49;;;;;;;;;;;;;;;;;;10466762;28;19925;-77
2024/01/25 10:21:50;;;;;;;;;;;;;;;;;;10451769;28;20044;-83
2024/01/25 10:26:50;;;;;;;;;;;;;;;;;;10460587;28;19913;-79
2024/01/25 10:31:50;;;;;;;;;;;;;;;;;;10466251;28;19916;-79
2024/01/25 10:36:50;;;;;;;;;;;;;;;;;;10492248;28;19921;-84
2024/01/25 10:41:50;;;;;;;;;;;;;;;;;;10474769;28;20003;-84
2024/01/25 10:46:51;;;;;;;;;;;;;;;;;;10491918;28;19919;-81
2024/01/25 10:51:51;;;;;;;;;;;;;;;;;;10473765;28;20367;-81
2024/01/25 10:56:51;;;;;;;;;;;;;;;;;;10474031;28;19919;-84
2024/01/25 11:01:52;;;;;;;;;;;;;;;;;;10472478;28;19909;-77
2024/01/25 11:06:52;;;;;;;;;;;;;;;;;;10484209;28;20003;-85
2024/01/25 11:11:52;;;;;;;;;;;;;;;;;;10475490;28;19913;-84
2024/01/25 11:16:52;;;;;;;;;;;;;;;;;;10473767;28;20344;-83
2024/01/25 11:21:53;;;;;;;;;;;;;;;;;;10490684;28;19970;-77
2024/01/25 11:26:53;;;;;;;;;;;;;;;;;;10471931;28;20380;-76
2024/01/25 11:31:53;;;;;;;;;;;;;;;;;;10471874;28;19967;-78
2024/01/25 11:36:53;;;;;;;;;;;;;;;;;;10471852;28;20470;-77
2024/01/25 11:41:53;;;;;;;;;;;;;;;;;;10471645;28;20517;-80
2024/01/25 11:46:53;;;;;;;;;;;;;;;;;;10470794;28;19912;-80
2024/01/25 11:51:54;;;;;;;;;;;;;;;;;;10472044;28;19916;-76
2024/01/25 11:56:54;;;;;;;;;;;;;;;;;;10487778;28;19935;-79
2024/01/25 12:01:54;;;;;;;;;;;;;;;;;;10438094;28;19915;-83
2024/01/25 12:06:54;;;;;;;;;;;;;;;;;;10471287;28;20407;-83
2024/01/25 12:11:54;;;;;;;;;;;;;;;;;;10489684;28;19912;-76
2024/01/25 12:16:54;;;;;;;;;;;;;;;;;;10470718;28;19915;-85
2024/01/25 12:21:54;;;;;;;;;;;;;;;;;;10470979;28;19999;-79
2024/01/25 12:26:54;;;;;;;;;;;;;;;;;;10471531;28;19991;-85
2024/01/25 12:31:55;;;;;;;;;;;;;;;;;;10470674;28;19912;-81
2024/01/25 12:36:55;;;;;;;;;;;;;;;;;;10490770;28;19920;-76
2024/01/25 12:41:55;;;;;;;;;;;;;;;;;;10472192;28;19939;-86
2024/01/25 12:46:55;;;;;;;;;;;;;;;;;;10470363;28;20405;-82
2024/01/25 12:51:56;;;;;;;;;;;;;;;;;;10471050;28;19916;-81
2024/01/25 12:56:56;;;;;;;;;;;;;;;;;;10473375;28;19986;-78
2024/01/25 13:01:56;;;;;;;;;;;;;;;;;;10455604;28;19913;-77
2024/01/25 13:06:57;;;;;;;;;;;;;;;;;;10470785;28;19912;-78
2024/01/25 13:11:57;;;;;;;;;;;;;;;;;;10475277;28;19916;-84
2024/01/25 13:16:57;;;;;;;;;;;;;;;;;;10476582;28;19917;-77
2024/01/25 13:21:57;;;;;;;;;;;;;;;;;;10486647;28;19942;-78
2024/01/25 13:26:57;;;;;;;;;;;;;;;;;;10469617;28;19920;-77
2024/01/25 13:31:57;;;;;;;;;;;;;;;;;;10468230;28;19913;-76
2024/01/25 13:36:57;;;;;;;;;;;;;;;;;;10466675;28;19928;-78
2024/01/25 13:41:57;;;;;;;;;;;;;;;;;;10466646;28;19924;-76
2024/01/25 13:46:59;;;;;;;;;;;;;;;;;;10495005;28;20359;-76
2024/01/25 13:51:59;;;;;;;;;;;;;;;;;;10466963;28;20472;-75
2024/01/25 13:56:59;;;;;;;;;;;;;;;;;;10484073;28;19915;-76
2024/01/25 14:01:59;;;;;;;;;;;;;;;;;;10463308;28;20006;-77
2024/01/25 14:06:59;;;;;;;;;;;;;;;;;;10482748;28;20474;-78
2024/01/25 14:11:59;;;;;;;;;;;;;;;;;;10480747;28;19927;-77
2024/01/25 14:17:00;;;;;;;;;;;;;;;;;;10461921;28;19951;-79
2024/01/25 14:22:00;;;;;;;;;;;;;;;;;;10462411;28;19931;-75
2024/01/25 14:27:00;;;;;;;;;;;;;;;;;;10478499;28;19919;-77
2024/01/25 14:32:00;;;;;;;;;;;;;;;;;;10465433;28;19919;-82
2024/01/25 14:37:00;;;;;;;;;;;;;;;;;;10460380;28;20039;-75
2024/01/25 14:42:00;;;;;;;;;;;;;;;;;;10459810;28;19923;-77
2024/01/25 14:47:01;;;;;;;;;;;;;;;;;;10457759;28;19908;-77
2024/01/25 14:52:01;;;;;;;;;;;;;;;;;;10454467;28;19959;-78
2024/01/25 14:57:01;;;;;;;;;;;;;;;;;;10410160;28;20399;-78
2024/01/25 15:02:01;;;;;;;;;;;;;;;;;;10413554;28;20656;-82
2024/01/25 15:07:01;;;;;;;;;;;;;;;;;;10433486;28;19916;-79
2024/01/25 15:12:06;;;;;;;;;;;;;;;;;;10419023;28;19913;-77
2024/01/25 15:17:06;;;;;;;;;;;;;;;;;;10421947;28;19917;-77
2024/01/25 15:22:07;;;;;;;;;;;;;;;;;;10412011;28;19913;-78
2024/01/25 15:27:07;;;;;;;;;;;;;;;;;;10412401;28;19919;-79
2024/01/25 15:32:08;;;;;;;;;;;;;;;;;;10430391;28;19916;-77
2024/01/25 15:37:08;;;;;;;;;;;;;;;;;;10428336;28;19928;-79
2024/01/25 15:42:08;;;;;;;;;;;;;;;;;;10438012;28;19924;-79
2024/01/25 15:47:11;;;;;;;;;;;;;;;;;;10434199;28;19924;-85
2024/01/25 15:52:12;;;;;;;;;;;;;;;;;;10410695;28;19917;-81
2024/01/25 15:57:13;;;;;;;;;;;;;;;;;;10428681;28;19978;-80
2024/01/25 16:02:13;;;;;;;;;;;;;;;;;;10414013;28;19908;-77
2024/01/25 16:07:13;;;;;;;;;;;;;;;;;;10410225;28;19909;-83
2024/01/25 16:12:13;;;;;;;;;;;;;;;;;;10436236;28;19916;-80
2024/01/25 16:17:15;;;;;;;;;;;;;;;;;;10418879;28;20302;-80
2024/01/25 16:22:15;;;;;;;;;;;;;;;;;;10416473;28;19923;-81
2024/01/25 16:27:15;;;;;;;;;;;;;;;;;;10409123;28;19913;-81
2024/01/25 16:32:15;;;;;;;;;;;;;;;;;;10427914;28;20300;-82
2024/01/25 16:37:17;;;;;;;;;;;;;;;;;;10409119;28;20267;-84
2024/01/25 16:42:17;;;;;;;;;;;;;;;;;;10410382;28;19920;-83
2024/01/25 16:47:18;;;;;;;;;;;;;;;;;;10444106;28;19924;-82
2024/01/25 16:52:19;;;;;;;;;;;;;;;;;;10417318;28;19917;-83
2024/01/25 16:57:19;;;;;;;;;;;;;;;;;;10411248;28;19944;-79
2024/01/25 17:02:20;;;;;;;;;;;;;;;;;;10415241;28;20138;-79
2024/01/25 17:07:20;;;;;;;;;;;;;;;;;;10440930;28;20021;-79
2024/01/25 17:12:21;;;;;;;;;;;;;;;;;;10419666;28;19916;-80
2024/01/25 17:17:21;;;;;;;;;;;;;;;;;;10407680;28;19909;-81
2024/01/25 17:22:21;;;;;;;;;;;;;;;;;;10419507;28;20300;-79
2024/01/25 17:27:22;;;;;;;;;;;;;;;;;;10418998;28;19917;-82
2024/01/25 17:32:23;;;;;;;;;;;;;;;;;;10419404;28;20247;-81
2024/01/25 17:37:26;;;;;;;;;;;;;;;;;;10410259;28;19925;-85
2024/01/25 17:42:26;;;;;;;;;;;;;;;;;;10422563;28;19913;-81
2024/01/25 17:47:26;;;;;;;;;;;;;;;;;;10416413;28;19909;-80
2024/01/25 17:52:26;;;;;;;;;;;;;;;;;;10415686;28;19975;-80
2024/01/25 17:57:26;;;;;;;;;;;;;;;;;;10408790;28;20007;-80
2024/01/25 18:02:26;;;;;;;;;;;;;;;;;;10412841;28;20001;-77
2024/01/25 18:07:28;;;;;;;;;;;;;;;;;;10403431;28;20417;-76
2024/01/25 18:12:28;;;;;;;;;;;;;;;;;;10409625;28;19987;-76
2024/01/25 18:17:28;;;;;;;;;;;;;;;;;;10418079;28;19944;-80
2024/01/25 18:22:28;;;;;;;;;;;;;;;;;;10414497;28;20692;-79
2024/01/25 18:27:28;;;;;;;;;;;;;;;;;;10404097;28;19936;-78
2024/01/25 18:32:28;;;;;;;;;;;;;;;;;;10406722;28;19920;-83
2024/01/25 18:37:28;;;;;;;;;;;;;;;;;;10416405;28;19921;-80
2024/01/25 18:42:28;;;;;;;;;;;;;;;;;;10406212;28;19921;-79
2024/01/25 18:47:30;;;;;;;;;;;;;;;;;;10414679;28;19916;-83
2024/01/25 18:52:30;;;;;;;;;;;;;;;;;;10428554;28;19941;-75
2024/01/25 18:57:32;;;;;;;;;;;;;;;;;;10448341;28;20312;-77
2024/01/25 19:02:33;;;;;;;;;;;;;;;;;;10416996;28;20281;-79
2024/01/25 19:07:33;;;;;;;;;;;;;;;;;;10436234;28;19913;-82
2024/01/25 19:12:33;;;;;;;;;;;;;;;;;;10414304;28;20399;-80
2024/01/25 19:17:34;;;;;;;;;;;;;;;;;;10424767;28;19978;-82
2024/01/25 19:22:34;;;;;;;;;;;;;;;;;;10413772;28;19923;-79
2024/01/25 19:27:34;;;;;;;;;;;;;;;;;;10436515;28;20379;-80
2024/01/25 19:32:34;;;;;;;;;;;;;;;;;;10437360;28;20181;-83
2024/01/25 19:37:34;;;;;;;;;;;;;;;;;;10412416;28;19924;-82
2024/01/25 19:42:35;;;;;;;;;;;;;;;;;;10432978;28;20368;-80
2024/01/25 19:47:35;;;;;;;;;;;;;;;;;;10469621;28;19923;-79
2024/01/25 19:52:35;;;;;;;;;;;;;;;;;;10433998;28;20336;-87
2024/01/25 19:57:35;;;;;;;;;;;;;;;;;;10455152;28;19912;-79
2024/01/25 20:02:35;;;;;;;;;;;;;;;;;;10440420;28;19913;-76
2024/01/25 20:07:35;;;;;;;;;;;;;;;;;;10436334;28;19916;-87
2024/01/25 20:12:36;;;;;;;;;;;;;;;;;;10430326;28;19920;-84
2024/01/25 20:17:36;;;;;;;;;;;;;;;;;;10469272;28;19915;-80
2024/01/25 20:22:36;;;;;;;;;;;;;;;;;;10457378;28;19940;-80
2024/01/25 20:27:36;;;;;;;;;;;;;;;;;;10468477;28;19999;-79
2024/01/25 20:32:36;;;;;;;;;;;;;;;;;;10457422;28;19920;-78
2024/01/25 20:37:36;;;;;;;;;;;;;;;;;;10469832;28;20089;-81
2024/01/25 20:42:37;;;;;;;;;;;;;;;;;;10440575;28;20010;-78
2024/01/25 20:47:37;;;;;;;;;;;;;;;;;;10481291;28;19908;-79
2024/01/25 20:52:39;;;;;;;;;;;;;;;;;;10458982;28;20118;-78
2024/01/25 20:57:40;;;;;;;;;;;;;;;;;;10438092;28;20103;-83
2024/01/25 21:02:40;;;;;;;;;;;;;;;;;;10435837;28;19913;-79
2024/01/25 21:07:40;;;;;;;;;;;;;;;;;;10467999;28;20298;-81
2024/01/25 21:12:40;;;;;;;;;;;;;;;;;;10465833;28;20352;-80
2024/01/25 21:17:40;;;;;;;;;;;;;;;;;;10454892;28;19916;-79
2024/01/25 21:22:41;;;;;;;;;;;;;;;;;;10455358;28;19912;-82
2024/01/25 21:27:42;;;;;;;;;;;;;;;;;;10487543;28;19916;-79
2024/01/25 21:32:42;;;;;;;;;;;;;;;;;;10473282;28;20320;-80
2024/01/25 21:37:42;;;;;;;;;;;;;;;;;;10485187;28;19975;-78
2024/01/25 21:42:42;;;;;;;;;;;;;;;;;;10453186;28;19913;-81
2024/01/25 21:47:43;;;;;;;;;;;;;;;;;;10480483;28;19955;-80
2024/01/25 21:52:43;;;;;;;;;;;;;;;;;;10443672;28;20011;-80
2024/01/25 21:57:44;;;;;;;;;;;;;;;;;;10431498;28;19916;-79
2024/01/25 22:02:44;;;;;;;;;;;;;;;;;;10432326;28;20452;-81
2024/01/25 22:07:45;;;;;;;;;;;;;;;;;;10439848;28;19943;-81
2024/01/25 22:12:46;;;;;;;;;;;;;;;;;;10419542;28;19917;-78
2024/01/25 22:17:46;;;;;;;;;;;;;;;;;;10404488;28;19925;-81
2024/01/25 22:22:46;;;;;;;;;;;;;;;;;;10419310;28;19917;-79
2024/01/25 22:27:47;;;;;;;;;;;;;;;;;;10405800;28;19920;-80
2024/01/25 22:32:47;;;;;;;;;;;;;;;;;;10433712;28;19920;-80
2024/01/25 22:37:47;;;;;;;;;;;;;;;;;;10446348;28;20310;-78
2024/01/25 22:42:47;;;;;;;;;;;;;;;;;;10427118;28;19974;-80
2024/01/25 22:47:48;;;;;;;;;;;;;;;;;;10443258;28;19931;-81
2024/01/25 22:52:48;;;;;;;;;;;;;;;;;;10453309;28;19917;-84
2024/01/25 22:57:48;;;;;;;;;;;;;;;;;;10487448;28;19920;-81
2024/01/25 23:02:49;;;;;;;;;;;;;;;;;;10477145;28;19909;-81
2024/01/25 23:07:49;;;;;;;;;;;;;;;;;;10470745;28;19991;-84
2024/01/25 23:12:49;;;;;;;;;;;;;;;;;;10464110;28;19924;-78
2024/01/25 23:17:49;;;;;;;;;;;;;;;;;;10476761;28;20379;-79
2024/01/25 23:22:49;;;;;;;;;;;;;;;;;;10480489;28;19923;-83
2024/01/25 23:27:50;;;;;;;;;;;;;;;;;;10470342;28;20446;-79
2024/01/25 23:32:50;;;;;;;;;;;;;;;;;;10442817;28;20563;-84
2024/01/25 23:37:51;;;;;;;;;;;;;;;;;;10436568;28;19920;-81
2024/01/25 23:42:52;;;;;;;;;;;;;;;;;;10448957;28;19912;-79
2024/01/25 23:47:52;;;;;;;;;;;;;;;;;;10437310;28;19916;-80
2024/01/25 23:52:53;;;;;;;;;;;;;;;;;;10465421;28;20261;-81
2024/01/25 23:57:53;;;;;;;;;;;;;;;;;;10459182;28;19908;-82
